createdAt,value
2022-10-17T00:01:11.594Z,34.65
2022-10-17T00:03:36.239Z,35.28
2022-10-17T00:05:59.269Z,35.33
2022-10-17T00:08:21.952Z,35.25
2022-10-17T00:10:45.192Z,35.00
2022-10-17T00:13:08.829Z,32.88
2022-10-17T00:15:31.682Z,32.28
2022-10-17T00:17:54.265Z,33.42
2022-10-17T00:20:17.265Z,32.35
2022-10-17T00:22:40.138Z,33.58
2022-10-17T00:25:02.710Z,28.90
2022-10-17T00:27:25.772Z,32.47
2022-10-17T00:29:50.242Z,32.15
2022-10-17T00:32:12.828Z,33.75
2022-10-17T00:34:35.237Z,29.35
2022-10-17T00:36:58.101Z,33.42
2022-10-17T00:39:20.978Z,30.95
2022-10-17T00:41:43.687Z,30.98
2022-10-17T00:44:31.370Z,30.90
2022-10-17T00:46:54.064Z,33.20
2022-10-17T00:49:16.786Z,33.20
2022-10-17T00:51:46.776Z,30.77
2022-10-17T00:54:13.842Z,31.27
2022-10-17T00:56:37.000Z,34.70
2022-10-17T00:59:00.701Z,29.52
2022-10-17T01:01:23.344Z,29.90
2022-10-17T01:03:46.108Z,32.08
2022-10-17T01:06:11.698Z,30.15
2022-10-17T01:08:34.629Z,32.60
2022-10-17T01:11:03.319Z,30.02
2022-10-17T01:13:38.174Z,32.90
2022-10-17T01:16:17.237Z,31.08
2022-10-17T01:18:50.231Z,32.78
2022-10-17T01:21:39.194Z,30.20
2022-10-17T01:24:04.854Z,30.45
2022-10-17T01:26:55.475Z,31.70
2022-10-17T01:29:56.130Z,29.27
2022-10-17T01:32:37.112Z,33.25
2022-10-17T01:35:13.284Z,30.80
2022-10-17T01:37:56.113Z,30.55
2022-10-17T01:40:49.128Z,29.85
2022-10-17T01:43:23.756Z,28.42
2022-10-17T01:45:53.840Z,32.63
2022-10-17T01:48:21.779Z,31.65
2022-10-17T01:50:56.929Z,32.75
2022-10-17T01:53:33.678Z,31.50
2022-10-17T01:56:00.426Z,30.23
2022-10-17T01:58:34.088Z,31.83
2022-10-17T02:01:01.588Z,29.67
2022-10-17T02:03:28.652Z,29.95
2022-10-17T02:05:51.730Z,30.35
2022-10-17T02:08:25.066Z,31.02
2022-10-17T02:10:54.875Z,29.02
2022-10-17T02:13:35.575Z,28.02
2022-10-17T02:16:10.852Z,27.52
2022-10-17T02:19:15.716Z,30.73
2022-10-17T02:22:08.806Z,27.73
2022-10-17T02:24:57.765Z,29.10
2022-10-17T02:27:55.916Z,29.52
2022-10-17T02:30:55.103Z,30.33
2022-10-17T02:33:40.785Z,28.02
2022-10-17T02:36:08.997Z,29.73
2022-10-17T02:38:33.135Z,30.65
2022-10-17T02:40:57.270Z,31.08
2022-10-17T02:43:21.958Z,29.05
2022-10-17T02:45:46.169Z,27.77
2022-10-17T02:48:15.432Z,26.52
2022-10-17T02:51:01.271Z,30.40
2022-10-17T02:53:31.593Z,29.52
2022-10-17T02:56:00.433Z,30.48
2022-10-17T02:58:29.059Z,31.27
2022-10-17T03:00:52.761Z,28.55
2022-10-17T03:03:30.375Z,32.33
2022-10-17T03:05:57.067Z,28.27
2022-10-17T03:08:22.374Z,26.83
2022-10-17T03:10:45.138Z,30.35
2022-10-17T03:13:07.701Z,28.55
2022-10-17T03:15:34.215Z,30.30
2022-10-17T03:17:57.007Z,28.38
2022-10-17T03:20:19.672Z,28.63
2022-10-17T03:22:42.181Z,29.38
2022-10-17T03:25:06.487Z,28.55
2022-10-17T03:27:31.640Z,28.10
2022-10-17T03:29:54.596Z,30.02
2022-10-17T03:32:17.348Z,28.15
2022-10-17T03:34:39.958Z,29.13
2022-10-17T03:37:02.748Z,31.55
2022-10-17T03:39:27.037Z,27.85
2022-10-17T03:41:49.878Z,29.17
2022-10-17T03:44:12.520Z,30.05
2022-10-17T03:46:35.336Z,25.65
2022-10-17T03:48:57.940Z,27.65
2022-10-17T03:51:20.768Z,28.30
2022-10-17T03:53:48.020Z,30.02
2022-10-17T03:56:15.329Z,30.05
2022-10-17T03:58:38.871Z,29.88
2022-10-17T04:01:09.783Z,30.92
2022-10-17T04:03:33.316Z,29.95
2022-10-17T04:05:59.964Z,29.58
2022-10-17T04:08:23.153Z,28.10
2022-10-17T04:11:08.426Z,30.17
2022-10-17T04:13:31.534Z,31.33
2022-10-17T04:15:59.041Z,28.15
2022-10-17T04:18:22.142Z,28.85
2022-10-17T04:20:44.711Z,26.10
2022-10-17T04:23:07.588Z,31.83
2022-10-17T04:25:33.413Z,28.55
2022-10-17T04:27:58.685Z,28.27
2022-10-17T04:30:21.512Z,27.35
2022-10-17T04:32:44.200Z,26.25
2022-10-17T04:35:15.533Z,28.57
2022-10-17T04:37:43.306Z,26.38
2022-10-17T04:40:12.527Z,29.42
2022-10-17T04:42:35.295Z,29.40
2022-10-17T04:44:58.111Z,31.38
2022-10-17T04:47:22.100Z,29.75
2022-10-17T04:49:44.846Z,30.58
2022-10-17T04:52:11.055Z,26.00
2022-10-17T04:54:36.628Z,27.85
2022-10-17T04:57:03.718Z,30.77
2022-10-17T04:59:26.357Z,27.55
2022-10-17T05:02:00.089Z,27.30
2022-10-17T05:04:24.847Z,26.25
2022-10-17T05:06:48.969Z,25.98
2022-10-17T05:09:28.026Z,27.58
2022-10-17T05:11:50.698Z,29.67
2022-10-17T05:14:15.146Z,27.75
2022-10-17T05:16:38.274Z,26.67
2022-10-17T05:19:01.845Z,28.58
2022-10-17T05:24:00.301Z,24.90
2022-10-17T05:26:23.942Z,27.42
2022-10-17T05:28:46.786Z,27.05
2022-10-17T05:31:11.485Z,28.77
2022-10-17T05:33:35.153Z,29.00
2022-10-17T05:35:58.568Z,26.23
2022-10-17T05:38:21.260Z,33.08
2022-10-17T05:40:45.551Z,23.70
2022-10-17T05:43:08.752Z,27.88
2022-10-17T05:45:31.645Z,28.35
2022-10-17T05:47:55.525Z,32.08
2022-10-17T05:50:21.606Z,32.00
2022-10-17T05:53:02.916Z,32.65
2022-10-17T05:55:25.955Z,28.95
2022-10-17T05:57:52.714Z,30.70
2022-10-17T06:00:16.212Z,29.48
2022-10-17T06:02:40.341Z,28.95
2022-10-17T06:05:02.935Z,32.10
2022-10-17T06:07:25.529Z,27.13
2022-10-17T06:09:49.023Z,26.45
2022-10-17T06:12:11.599Z,24.40
2022-10-17T06:14:34.612Z,28.17
2022-10-17T06:16:59.395Z,29.02
2022-10-17T06:19:24.541Z,24.67
2022-10-17T06:21:47.248Z,29.75
2022-10-17T06:24:14.406Z,37.72
2022-10-17T06:26:38.626Z,35.30
2022-10-17T06:29:03.765Z,31.65
2022-10-17T06:31:31.127Z,31.38
2022-10-17T06:33:53.832Z,26.92
2022-10-17T06:36:16.527Z,24.35
2022-10-17T06:38:41.635Z,28.70
2022-10-17T06:41:15.076Z,30.08
2022-10-17T06:43:38.300Z,38.38
2022-10-17T06:46:36.575Z,38.28
2022-10-17T06:49:01.263Z,31.02
2022-10-17T06:51:39.131Z,26.25
2022-10-17T06:54:04.959Z,27.35
2022-10-17T06:57:06.027Z,43.67
2022-10-17T06:59:47.489Z,25.10
2022-10-17T07:02:23.712Z,23.00
2022-10-17T07:04:48.476Z,38.45
2022-10-17T07:07:11.119Z,26.25
2022-10-17T07:09:34.247Z,27.70
2022-10-17T07:11:57.560Z,26.95
2022-10-17T07:14:20.213Z,27.80
2022-10-17T07:16:43.321Z,26.85
2022-10-17T07:19:15.120Z,26.05
2022-10-17T07:21:39.210Z,28.05
2022-10-17T07:24:04.223Z,25.05
2022-10-17T07:26:27.099Z,27.23
2022-10-17T07:28:54.600Z,25.13
2022-10-17T07:31:27.217Z,26.50
2022-10-17T07:33:51.385Z,26.75
2022-10-17T07:36:14.110Z,25.10
2022-10-17T07:38:37.428Z,27.08
2022-10-17T07:41:03.578Z,23.10
2022-10-17T07:43:27.120Z,22.88
2022-10-17T07:45:50.569Z,22.30
2022-10-17T07:48:13.415Z,23.05
2022-10-17T07:50:36.647Z,22.33
2022-10-17T07:52:59.514Z,25.52
2022-10-17T07:55:22.228Z,24.05
2022-10-17T07:57:45.082Z,24.48
2022-10-17T08:00:08.904Z,28.20
2022-10-17T08:02:40.217Z,26.83
2022-10-17T08:05:02.952Z,25.02
2022-10-17T08:07:29.282Z,24.88
2022-10-17T08:09:53.055Z,22.75
2022-10-17T08:12:16.098Z,23.35
2022-10-17T08:14:39.889Z,21.52
2022-10-17T08:17:02.554Z,23.63
2022-10-17T08:19:25.424Z,24.25
2022-10-17T08:21:49.755Z,21.10
2022-10-17T08:24:12.899Z,21.65
2022-10-17T08:26:39.257Z,22.55
2022-10-17T08:29:05.138Z,30.02
2022-10-17T08:31:27.811Z,26.65
2022-10-17T08:33:51.136Z,27.30
2022-10-17T08:36:15.356Z,22.23
2022-10-17T08:38:43.193Z,21.45
2022-10-17T08:41:26.391Z,20.55
2022-10-17T08:44:19.475Z,20.80
2022-10-17T08:46:45.044Z,20.08
2022-10-17T08:49:15.116Z,20.48
2022-10-17T08:51:44.384Z,22.08
2022-10-17T08:54:16.014Z,19.35
2022-10-17T08:56:54.163Z,19.40
2022-10-17T08:59:29.372Z,22.23
2022-10-17T09:02:29.461Z,21.33
2022-10-17T09:05:01.816Z,17.70
2022-10-17T09:07:24.825Z,19.67
2022-10-17T09:10:33.867Z,19.40
2022-10-17T09:13:18.588Z,20.50
2022-10-17T09:16:08.247Z,22.85
2022-10-17T09:18:36.171Z,20.38
2022-10-17T09:21:18.669Z,18.17
2022-10-17T09:24:09.610Z,21.38
2022-10-17T09:26:40.937Z,18.95
2022-10-17T09:29:10.630Z,18.80
2022-10-17T09:31:40.957Z,18.48
2022-10-17T09:34:28.216Z,24.15
2022-10-17T09:36:50.970Z,19.15
2022-10-17T09:39:26.235Z,15.32
2022-10-17T09:41:52.034Z,16.60
2022-10-17T09:44:18.731Z,17.88
2022-10-17T09:46:51.018Z,20.00
2022-10-17T09:49:19.958Z,19.42
2022-10-17T09:51:42.757Z,16.30
2022-10-17T09:54:17.801Z,18.23
2022-10-17T09:57:00.593Z,17.63
2022-10-17T09:59:42.168Z,17.80
2022-10-17T10:02:26.563Z,14.30
2022-10-17T10:05:09.557Z,15.20
2022-10-17T10:07:40.106Z,14.32
2022-10-17T10:10:04.718Z,12.18
2022-10-17T10:12:32.057Z,16.25
2022-10-17T10:14:55.992Z,15.93
2022-10-17T10:17:35.503Z,14.85
2022-10-17T10:19:59.667Z,15.30
2022-10-17T10:22:25.700Z,15.27
2022-10-17T10:25:07.799Z,13.50
2022-10-17T10:27:30.599Z,14.43
2022-10-17T10:29:53.697Z,15.05
2022-10-17T10:32:22.454Z,11.63
2022-10-17T10:34:59.211Z,14.50
2022-10-17T10:37:41.890Z,14.15
2022-10-17T10:40:16.277Z,12.77
2022-10-17T10:42:40.450Z,11.70
2022-10-17T10:45:29.202Z,14.68
2022-10-17T10:48:01.316Z,13.43
2022-10-17T10:50:29.831Z,15.50
2022-10-17T10:53:22.784Z,14.73
2022-10-17T10:55:52.107Z,13.68
2022-10-17T10:58:42.064Z,12.75
2022-10-17T11:01:14.686Z,13.15
2022-10-17T11:03:50.284Z,10.48
2022-10-17T11:06:30.521Z,10.27
2022-10-17T11:09:14.014Z,12.80
2022-10-17T11:11:42.593Z,10.95
2022-10-17T11:14:37.358Z,9.05
2022-10-17T11:17:09.207Z,11.05
2022-10-17T11:19:51.879Z,11.23
2022-10-17T11:22:26.709Z,10.82
2022-10-17T11:25:32.616Z,11.10
2022-10-17T11:27:55.607Z,11.35
2022-10-17T11:30:18.800Z,13.73
2022-10-17T11:32:49.138Z,11.05
2022-10-17T11:35:27.983Z,14.73
2022-10-17T11:37:58.238Z,11.18
2022-10-17T11:40:51.299Z,9.82
2022-10-17T11:43:16.935Z,10.05
2022-10-17T11:45:44.644Z,17.50
2022-10-17T11:48:37.679Z,11.20
2022-10-17T11:54:02.525Z,13.70
2022-10-17T11:57:06.351Z,12.05
2022-10-17T11:59:45.278Z,10.90
2022-10-17T12:02:31.039Z,8.40
2022-10-17T12:05:07.004Z,10.82
2022-10-17T12:08:12.028Z,10.90
2022-10-17T12:10:47.522Z,10.45
2022-10-17T12:13:28.378Z,10.27
2022-10-17T12:15:51.001Z,7.88
2022-10-17T12:18:17.502Z,7.47
2022-10-17T12:20:40.167Z,11.20
2022-10-17T12:23:19.480Z,10.38
2022-10-17T12:26:01.491Z,8.88
2022-10-17T12:28:48.132Z,8.73
2022-10-17T12:31:23.150Z,8.50
2022-10-17T12:33:53.264Z,10.50
2022-10-17T12:36:18.589Z,7.57
2022-10-17T12:38:41.251Z,9.68
2022-10-17T12:41:05.610Z,9.20
2022-10-17T12:43:28.465Z,8.93
2022-10-17T12:46:02.285Z,8.88
2022-10-17T12:48:33.858Z,10.88
2022-10-17T12:51:35.320Z,7.63
2022-10-17T12:54:15.155Z,9.07
2022-10-17T12:56:41.457Z,9.52
2022-10-17T12:59:22.674Z,7.90
2022-10-17T13:01:48.266Z,9.48
2022-10-17T13:04:11.456Z,9.15
2022-10-17T13:06:39.935Z,11.38
2022-10-17T13:09:06.104Z,8.20
2022-10-17T13:11:31.883Z,8.00
2022-10-17T13:13:57.351Z,9.75
2022-10-17T13:16:40.022Z,7.93
2022-10-17T13:19:14.884Z,11.55
2022-10-17T13:21:37.572Z,8.73
2022-10-17T13:24:01.219Z,11.65
2022-10-17T13:26:28.929Z,12.57
2022-10-17T13:29:05.078Z,9.90
2022-10-17T13:31:32.094Z,10.88
2022-10-17T13:34:00.999Z,10.70
2022-10-17T13:36:24.186Z,13.70
2022-10-17T13:38:47.307Z,11.25
2022-10-17T13:41:34.767Z,10.40
2022-10-17T13:44:00.983Z,11.93
2022-10-17T13:46:37.922Z,12.57
2022-10-17T13:49:15.803Z,10.45
2022-10-17T13:51:43.965Z,10.30
2022-10-17T13:54:29.823Z,12.00
2022-10-17T13:56:57.565Z,9.48
2022-10-17T13:59:25.014Z,12.20
2022-10-17T14:01:49.868Z,11.80
2022-10-17T14:04:19.919Z,12.75
2022-10-17T14:06:47.662Z,8.15
2022-10-17T14:09:32.376Z,8.77
2022-10-17T14:12:02.701Z,11.38
2022-10-17T14:14:26.357Z,10.65
2022-10-17T14:16:49.297Z,9.25
2022-10-17T14:19:32.050Z,9.85
2022-10-17T14:21:57.080Z,8.18
2022-10-17T14:24:22.343Z,9.65
2022-10-17T14:27:03.316Z,10.25
2022-10-17T14:29:28.783Z,10.15
2022-10-17T14:31:58.511Z,8.20
2022-10-17T14:34:26.677Z,7.22
2022-10-17T14:36:52.059Z,9.35
2022-10-17T14:39:24.462Z,10.55
2022-10-17T14:41:48.157Z,8.15
2022-10-17T14:44:24.357Z,11.27
2022-10-17T14:46:51.081Z,9.20
2022-10-17T14:49:35.502Z,9.70
2022-10-17T14:52:23.624Z,10.63
2022-10-17T14:54:49.251Z,11.77
2022-10-17T14:57:28.472Z,7.47
2022-10-17T14:59:55.176Z,7.55
2022-10-17T15:02:18.179Z,9.75
2022-10-17T15:04:41.062Z,11.05
2022-10-17T15:07:03.656Z,15.52
2022-10-17T15:09:28.911Z,9.30
2022-10-17T15:11:51.420Z,9.10
2022-10-17T15:14:13.911Z,11.23
2022-10-17T15:16:37.152Z,11.50
2022-10-17T15:19:00.808Z,7.80
2022-10-17T15:21:37.333Z,9.10
2022-10-17T15:24:02.061Z,12.48
2022-10-17T15:26:26.856Z,9.57
2022-10-17T15:28:50.342Z,11.68
2022-10-17T15:31:15.184Z,9.57
2022-10-17T15:33:37.732Z,9.80
2022-10-17T15:36:00.290Z,9.05
2022-10-17T15:38:22.892Z,8.90
2022-10-17T15:40:48.891Z,8.90
2022-10-17T15:43:11.493Z,9.88
2022-10-17T15:45:34.049Z,8.05
2022-10-17T15:48:02.840Z,10.93
2022-10-17T15:50:25.399Z,11.02
2022-10-17T15:52:51.143Z,10.70
2022-10-17T15:55:13.787Z,9.35
2022-10-17T15:57:40.269Z,12.27
2022-10-17T16:00:04.671Z,10.00
2022-10-17T16:02:33.436Z,9.18
2022-10-17T16:04:55.906Z,10.82
2022-10-17T16:07:19.573Z,10.10
2022-10-17T16:09:43.335Z,12.13
2022-10-17T16:12:11.676Z,14.07
2022-10-17T16:14:34.275Z,18.42
2022-10-17T16:16:56.928Z,13.80
2022-10-17T16:19:23.709Z,18.67
2022-10-17T16:21:46.672Z,17.27
2022-10-17T16:24:13.040Z,13.55
2022-10-17T16:26:35.963Z,13.18
2022-10-17T16:29:02.864Z,15.30
2022-10-17T16:31:31.177Z,16.98
2022-10-17T16:33:55.222Z,12.65
2022-10-17T16:36:17.965Z,14.05
2022-10-17T16:38:40.578Z,14.07
2022-10-17T16:41:03.350Z,13.18
2022-10-17T16:43:25.902Z,13.40
2022-10-17T16:45:48.393Z,12.77
2022-10-17T16:48:12.283Z,16.40
2022-10-17T16:50:39.320Z,11.00
2022-10-17T16:53:03.927Z,13.15
2022-10-17T16:55:26.614Z,11.10
2022-10-17T16:57:49.475Z,9.15
2022-10-17T17:00:12.811Z,10.82
2022-10-17T17:02:35.310Z,10.10
2022-10-17T17:04:57.986Z,10.73
2022-10-17T17:07:21.847Z,11.77
2022-10-17T17:09:44.607Z,13.50
2022-10-17T17:12:07.199Z,17.45
2022-10-17T17:14:29.708Z,13.90
2022-10-17T17:16:52.178Z,11.90
2022-10-17T17:19:17.143Z,10.75
2022-10-17T17:21:40.324Z,12.65
2022-10-17T17:24:04.687Z,9.90
2022-10-17T17:26:30.091Z,11.20
2022-10-17T17:28:54.320Z,11.00
2022-10-17T17:31:22.830Z,10.98
2022-10-17T17:33:46.850Z,12.88
2022-10-17T17:36:13.798Z,15.10
2022-10-17T17:38:36.945Z,13.45
2022-10-17T17:40:59.669Z,13.85
2022-10-17T17:43:24.526Z,12.88
2022-10-17T17:45:47.417Z,13.07
2022-10-17T17:48:10.204Z,11.77
2022-10-17T17:50:35.761Z,15.18
2022-10-17T17:52:58.692Z,13.30
2022-10-17T17:55:21.249Z,11.40
2022-10-17T17:57:43.752Z,11.90
2022-10-17T18:00:07.252Z,14.02
2022-10-17T18:02:31.002Z,13.80
2022-10-17T18:04:53.766Z,13.43
2022-10-17T18:07:16.411Z,13.85
2022-10-17T18:09:39.731Z,13.43
2022-10-17T18:12:02.381Z,13.27
2022-10-17T18:14:25.639Z,17.48
2022-10-17T18:16:48.245Z,15.77
2022-10-17T18:19:11.615Z,22.77
2022-10-17T18:21:36.221Z,17.40
2022-10-17T18:24:00.385Z,16.33
2022-10-17T18:26:23.378Z,17.33
2022-10-17T18:28:47.034Z,21.10
2022-10-17T18:31:24.335Z,23.15
2022-10-17T18:33:47.071Z,23.25
2022-10-17T18:36:13.506Z,23.35
2022-10-17T18:38:37.000Z,19.95
2022-10-17T18:41:11.091Z,20.23
2022-10-17T18:43:35.692Z,22.58
2022-10-17T18:46:04.034Z,17.75
2022-10-17T18:48:26.535Z,20.25
2022-10-17T18:50:49.021Z,18.45
2022-10-17T18:53:11.590Z,18.10
2022-10-17T18:55:34.383Z,17.88
2022-10-17T18:58:00.908Z,18.25
2022-10-17T19:00:23.402Z,16.80
2022-10-17T19:02:46.563Z,18.20
2022-10-17T19:05:09.708Z,18.88
2022-10-17T19:07:32.613Z,21.38
2022-10-17T19:09:57.681Z,18.77
2022-10-17T19:12:20.587Z,19.45
2022-10-17T19:14:43.319Z,21.33
2022-10-17T19:17:05.908Z,21.77
2022-10-17T19:19:28.633Z,19.45
2022-10-17T19:21:51.791Z,18.45
2022-10-17T19:24:21.157Z,20.65
2022-10-17T19:26:45.592Z,18.85
2022-10-17T19:29:08.515Z,21.30
2022-10-17T19:31:33.346Z,29.50
2022-10-17T19:33:56.486Z,26.00
2022-10-17T19:36:21.016Z,30.13
2022-10-17T19:38:43.555Z,28.58
2022-10-17T19:41:11.412Z,25.75
2022-10-17T19:43:37.609Z,25.92
2022-10-17T19:46:02.103Z,27.95
2022-10-17T19:48:25.982Z,32.65
2022-10-17T19:50:49.987Z,30.33
2022-10-17T19:53:12.457Z,26.95
2022-10-17T19:55:34.939Z,25.48
2022-10-17T19:57:59.221Z,26.75
2022-10-17T20:00:21.837Z,29.13
2022-10-17T20:02:44.301Z,31.90
2022-10-17T20:05:20.950Z,32.78
2022-10-17T20:07:46.299Z,35.03
2022-10-17T20:10:09.679Z,36.25
2022-10-17T20:12:32.844Z,36.00
2022-10-17T20:14:55.645Z,36.50
2022-10-17T20:17:18.164Z,38.53
2022-10-17T20:19:40.996Z,37.83
2022-10-17T20:22:03.592Z,38.42
2022-10-17T20:24:26.077Z,36.85
2022-10-17T20:26:48.842Z,35.38
2022-10-17T20:29:20.520Z,34.42
2022-10-17T20:31:44.667Z,32.92
2022-10-17T20:34:07.221Z,35.47
2022-10-17T20:36:29.815Z,35.78
2022-10-17T20:38:56.815Z,37.70
2022-10-17T20:41:19.356Z,33.50
2022-10-17T20:43:42.131Z,34.78
2022-10-17T20:46:22.705Z,32.90
2022-10-17T20:48:52.324Z,31.98
2022-10-17T20:51:16.535Z,37.95
2022-10-17T20:53:39.044Z,35.63
2022-10-17T20:56:07.934Z,37.53
2022-10-17T20:58:30.680Z,36.42
2022-10-17T21:00:53.290Z,40.97
2022-10-17T21:03:15.992Z,45.63
2022-10-17T21:05:41.666Z,42.72
2022-10-17T21:08:04.487Z,42.38
2022-10-17T21:10:35.583Z,41.58
2022-10-17T21:12:59.759Z,38.08
2022-10-17T21:15:22.605Z,38.53
2022-10-17T21:17:45.136Z,39.42
2022-10-17T21:20:08.199Z,39.08
2022-10-17T21:22:32.975Z,39.53
2022-10-17T21:24:55.756Z,41.88
2022-10-17T21:27:19.700Z,35.83
2022-10-17T21:29:42.600Z,36.42
2022-10-17T21:32:14.542Z,38.20
2022-10-17T21:34:47.997Z,36.92
2022-10-17T21:37:10.952Z,36.70
2022-10-17T21:39:33.584Z,35.05
2022-10-17T21:41:56.062Z,38.47
2022-10-17T21:44:21.126Z,37.20
2022-10-17T21:46:44.350Z,34.40
2022-10-17T21:49:07.028Z,37.78
2022-10-17T21:51:29.665Z,40.55
2022-10-17T21:53:53.661Z,39.53
2022-10-17T21:56:19.352Z,37.20
2022-10-17T21:58:42.737Z,35.50
2022-10-17T22:01:06.254Z,35.88
2022-10-17T22:03:28.687Z,34.40
2022-10-17T22:06:06.869Z,34.15
2022-10-17T22:08:37.408Z,36.47
2022-10-17T22:11:05.999Z,38.92
2022-10-17T22:13:28.899Z,37.75
2022-10-17T22:15:51.423Z,35.90
2022-10-17T22:18:14.445Z,39.28
2022-10-17T22:20:36.967Z,39.58
2022-10-17T22:22:59.490Z,37.38
2022-10-17T22:25:22.055Z,37.95
2022-10-17T22:27:44.861Z,36.58
2022-10-17T22:30:08.087Z,37.60
2022-10-17T22:32:30.781Z,38.00
2022-10-17T22:34:53.360Z,41.53
2022-10-17T22:37:15.856Z,36.97
2022-10-17T22:39:42.551Z,40.05
2022-10-17T22:42:05.033Z,39.78
2022-10-17T22:44:27.498Z,38.38
2022-10-17T22:46:50.109Z,36.95
2022-10-17T22:49:12.695Z,41.83
2022-10-17T22:51:35.177Z,37.30
2022-10-17T22:53:57.683Z,35.08
2022-10-17T22:56:21.723Z,37.25
2022-10-17T22:58:44.393Z,35.38
2022-10-17T23:01:08.631Z,35.00
2022-10-17T23:03:32.095Z,36.80
2022-10-17T23:05:54.891Z,33.75
2022-10-17T23:08:20.734Z,34.67
2022-10-17T23:10:43.733Z,39.08
2022-10-17T23:13:06.343Z,35.30
2022-10-17T23:15:28.972Z,35.00
2022-10-17T23:17:51.440Z,34.38
2022-10-17T23:20:14.155Z,35.97
2022-10-17T23:22:36.675Z,35.00
2022-10-17T23:24:59.291Z,35.00
2022-10-17T23:27:21.854Z,36.00
2022-10-17T23:29:46.325Z,36.38
2022-10-17T23:32:09.168Z,33.03
2022-10-17T23:34:31.715Z,37.08
2022-10-17T23:36:54.272Z,36.13
2022-10-17T23:39:17.061Z,33.45
2022-10-17T23:41:39.734Z,31.20
2022-10-17T23:44:02.376Z,33.53
2022-10-17T23:46:25.014Z,36.13
2022-10-17T23:48:47.609Z,35.67
2022-10-17T23:51:10.868Z,34.55
2022-10-17T23:53:33.420Z,33.00
2022-10-17T23:55:55.923Z,36.10
2022-10-17T23:58:18.780Z,36.85
